• Join FlightAware (Why Join?)
  • Login
  • US Flag 
07:17PM EDT


 

Airport Tracker/Info


-or-


 

Live Flight TrackerFlight Track Log ✈ SKW2696 ✈ 18-Apr-2013 ✈ KLAX - KRNO

Flight Track Log - Related Links

Times and Time Zones

All times are in EDT time to prevent confusion due to time zone crossing. See the SKW2696 flight status page for this flight to view local times or setup timezone preferences in your user account.

Time Position Orientation Groundspeed Altitude Reporting Facility
EDT Latitude Longitude Course Direction KTS MPH feet Rate Location/Type
06:24PM 33.9333 -118.4667 270° West 214 246 2,700  Level Southern California TRACON
06:25PM 33.9333 -118.5500 270° West 265 305 5,400 2,760 Climbing Southern California TRACON
06:26PM 33.9333 -118.6333 270° West 282 325 8,300 1,620 Climbing Southern California TRACON
06:27PM 34.0006 -118.6975 322° Northwest 266 306 9,000 1,200 Climbing Los Angeles Center
06:28PM 34.0661 -118.6925 North 253 291 11,000 1,920 Climbing Los Angeles Center
06:29PM 34.1267 -118.6483 31° Northeast 270 311 13,000 1,800 Climbing Los Angeles Center
06:30PM 34.2008 -118.6142 21° North 279 321 14,800 1,740 Climbing Los Angeles Center
06:31PM 34.3081 -118.6183 358° North 316 364 16,600 1,500 Climbing Los Angeles Center
06:32PM 34.3961 -118.6589 339° North 337 388 17,900 1,320 Climbing Los Angeles Center
06:33PM 34.4856 -118.7019 338° Northwest 344 396 19,400 1,440 Climbing Los Angeles Center
06:34PM 34.5750 -118.7456 338° Northwest 348 400 20,900 1,440 Climbing Los Angeles Center
06:35PM 34.6631 -118.7925 336° Northwest 347 399 22,400 1,500 Climbing Los Angeles Center
06:36PM 34.7683 -118.8361 341° North 339 390 24,100 1,200 Climbing Los Angeles Center
06:37PM 34.8628 -118.8489 354° North 340 391 25,000 420 Climbing Los Angeles Center
06:38PM 34.9656 -118.8650 353° North 361 415 25,000 240 Level Los Angeles Center
06:39PM 35.0719 -118.8814 353° North 382 440 25,500 600 Climbing Los Angeles Center
06:40PM 35.1781 -118.8992 352° North 387 445 26,300 720 Climbing Los Angeles Center
06:41PM 35.2853 -118.9158 353° North 390 449 27,100 780 Climbing Los Angeles Center
06:42PM 35.4106 -118.9369 352° North 382 440 28,000 480 Climbing Los Angeles Center
06:43PM 35.5161 -118.9544 352° North 386 444 28,200 480 Climbing Los Angeles Center
06:45PM 35.6239 -118.9725 352° North 391 450 29,000 720 Climbing Los Angeles Center
06:45PM 35.6636 -118.9783 353° North 385 443 29,300 660 Climbing Oakland Center
06:46PM 35.7667 -118.9967 352° North 382 440 30,000 300 Climbing Oakland Center
06:47PM 35.8939 -119.0175 352° North 385 443 30,000  Level Oakland Center
06:48PM 36.0031 -119.0361 352° North 392 451 30,000  Level Oakland Center
06:49PM 36.1114 -119.0542 352° North 394 453 30,000  Level Oakland Center
06:50PM 36.2192 -119.0728 352° North 393 452 30,000  Level Oakland Center
06:51PM 36.3253 -119.0886 353° North 392 451 30,000  Level Oakland Center
06:52PM 36.4303 -119.1086 351° North 382 440 30,000  Level Oakland Center
06:53PM 36.5342 -119.1256 353° North 379 436 30,000  Level Oakland Center
06:54PM 36.6369 -119.1408 353° North 369 425 30,000  Level Oakland Center
06:55PM 36.7614 -119.1633 352° North 373 429 30,000  Level Oakland Center
06:56PM 36.8661 -119.1836 351° North 379 436 30,000  Level Oakland Center
06:57PM 36.9692 -119.2022 352° North 382 440 30,000  Level Oakland Center
06:58PM 37.0739 -119.2208 352° North 382 440 30,000  Level Oakland Center
06:59PM 37.1789 -119.2394 352° North 382 440 30,000  Level Oakland Center
07:00PM 37.2856 -119.2583 352° North 385 443 30,000  Level Oakland Center
07:01PM 37.3917 -119.2769 352° North 386 444 30,000  Level Oakland Center
07:02PM 37.4969 -119.2964 352° North 384 442 30,000  Level Oakland Center
07:03PM 37.6233 -119.3131 354° North 388 447 30,000 -420 Level Oakland Center
07:04PM 37.7339 -119.3267 354° North 394 453 29,200 -1,020 Descending Oakland Center
07:05PM 37.8419 -119.3475 351° North 398 458 28,000 -1,200 Descending Oakland Center
07:06PM 37.9461 -119.3683 351° North 391 450 26,800 -1,200 Descending Oakland Center
07:08PM 38.0539 -119.3872 352° North 390 449 25,600 -1,260 Descending Oakland Center
07:09PM 38.1708 -119.4081 352° North 384 442 24,300 -1,080 Descending Oakland Center
07:10PM 38.2747 -119.4269 352° North 380 437 23,400 -1,140 Descending Oakland Center
07:11PM 38.3778 -119.4467 351° North 375 432 22,000 -1,380 Descending Oakland Center
07:12PM 38.4814 -119.4631 353° North 374 430 20,600 -1,020 Descending Oakland Center
07:13PM 38.5867 -119.4819 352° North 379 436 20,000 -660 Descending Oakland Center
07:14PM 38.6853 -119.4994 352° North 364 419 19,300 -1,080 Descending Oakland Center
07:15PM 38.7889 -119.5183 352° North 368 423 17,900 -1,500 Descending Oakland Center
07:16PM 38.8972 -119.5381 352° North 386 444 16,300 -1,080 Descending Oakland Center
07:17PM 39.0161 -119.5597 352° North 362 417 15,800 -840 Descending Oakland Center
07:18PM 39.1172 -119.5775 352° North 363 418 14,700 -1,080 Descending Oakland Center
07:19PM 39.2175 -119.5958 352° North 364 419 13,700 -1,020 Descending Oakland Center
07:20PM 39.3197 -119.6136 352° North 366 421 12,700 -1,020 Descending Oakland Center
07:21PM 39.4189 -119.6322 352° North 364 419 11,700 -1,080 Descending Oakland Center
07:21PM 39.4500 -119.6500 336° Northwest 350 403 11,300 -540 Descending Northern Cal TRACON
07:22PM 39.5333 -119.6500 360° North 279 321 11,000 -180 Descending Northern Cal TRACON
07:23PM 39.6167 -119.6667 351° North 249 287 11,000  Level Northern Cal TRACON
07:24PM 39.6506 -119.6744 350° North 252 290 11,000 -480 Level Oakland Center
07:25PM 39.7008 -119.6997 339° North 235 270 10,200 -1,260 Descending Oakland Center
07:26PM 39.6694 -119.7681 239° Southwest 230 265 8,500 -1,320 Descending Oakland Center
07:27PM 39.6206 -119.7625 175° South 223 257 7,500 -1,500 Descending Oakland Center
07:28PM 39.5500 -119.7667 183° South 165 190 5,200 -1,920 Descending Northern Cal TRACON